sensor_id;sensor_type;location;lat;lon;timestamp;P1;durP1;ratioP1;P2;durP2;ratioP2
25073;SDS011;13066;52.042;5.648;2023-04-24T00:02:17;4.22;;;3.83;;
25073;SDS011;13066;52.042;5.648;2023-04-24T00:04:45;4.00;;;3.55;;
25073;SDS011;13066;52.042;5.648;2023-04-24T00:07:14;4.45;;;3.47;;
25073;SDS011;13066;52.042;5.648;2023-04-24T00:09:43;5.30;;;3.95;;
25073;SDS011;13066;52.042;5.648;2023-04-24T00:12:11;3.60;;;3.28;;
25073;SDS011;13066;52.042;5.648;2023-04-24T00:14:39;6.88;;;3.25;;
25073;SDS011;13066;52.042;5.648;2023-04-24T00:17:06;4.03;;;3.30;;
25073;SDS011;13066;52.042;5.648;2023-04-24T00:19:36;3.10;;;2.80;;
25073;SDS011;13066;52.042;5.648;2023-04-24T00:22:04;11.02;;;3.20;;
25073;SDS011;13066;52.042;5.648;2023-04-24T00:24:32;3.33;;;2.92;;
25073;SDS011;13066;52.042;5.648;2023-04-24T00:27:00;4.25;;;3.25;;
25073;SDS011;13066;52.042;5.648;2023-04-24T00:29:29;3.90;;;3.15;;
25073;SDS011;13066;52.042;5.648;2023-04-24T00:31:57;4.25;;;2.70;;
25073;SDS011;13066;52.042;5.648;2023-04-24T00:34:25;5.30;;;2.55;;
25073;SDS011;13066;52.042;5.648;2023-04-24T00:36:54;3.58;;;2.45;;
25073;SDS011;13066;52.042;5.648;2023-04-24T00:39:22;2.58;;;2.20;;
25073;SDS011;13066;52.042;5.648;2023-04-24T00:41:50;4.03;;;2.35;;
25073;SDS011;13066;52.042;5.648;2023-04-24T00:44:18;3.08;;;2.65;;
25073;SDS011;13066;52.042;5.648;2023-04-24T00:46:47;3.60;;;2.55;;
25073;SDS011;13066;52.042;5.648;2023-04-24T00:49:18;3.20;;;2.90;;
25073;SDS011;13066;52.042;5.648;2023-04-24T00:51:46;5.20;;;2.75;;
25073;SDS011;13066;52.042;5.648;2023-04-24T00:54:16;6.07;;;3.05;;
25073;SDS011;13066;52.042;5.648;2023-04-24T00:56:45;4.10;;;2.83;;
25073;SDS011;13066;52.042;5.648;2023-04-24T00:59:14;4.05;;;3.15;;
25073;SDS011;13066;52.042;5.648;2023-04-24T01:01:43;3.10;;;2.80;;
25073;SDS011;13066;52.042;5.648;2023-04-24T01:04:12;6.45;;;2.33;;
25073;SDS011;13066;52.042;5.648;2023-04-24T01:06:41;5.28;;;2.60;;
25073;SDS011;13066;52.042;5.648;2023-04-24T01:09:11;2.67;;;2.40;;
25073;SDS011;13066;52.042;5.648;2023-04-24T01:11:41;4.45;;;2.42;;
25073;SDS011;13066;52.042;5.648;2023-04-24T01:14:10;3.13;;;2.20;;
25073;SDS011;13066;52.042;5.648;2023-04-24T01:16:40;3.58;;;1.88;;
25073;SDS011;13066;52.042;5.648;2023-04-24T01:19:08;2.10;;;1.42;;
25073;SDS011;13066;52.042;5.648;2023-04-24T01:21:37;1.67;;;1.45;;
25073;SDS011;13066;52.042;5.648;2023-04-24T01:24:07;1.63;;;1.10;;
25073;SDS011;13066;52.042;5.648;2023-04-24T01:26:37;1.75;;;1.33;;
25073;SDS011;13066;52.042;5.648;2023-04-24T01:29:05;1.15;;;1.00;;
25073;SDS011;13066;52.042;5.648;2023-04-24T01:31:33;1.85;;;1.10;;
25073;SDS011;13066;52.042;5.648;2023-04-24T01:34:02;1.25;;;1.15;;
25073;SDS011;13066;52.042;5.648;2023-04-24T01:36:30;4.20;;;1.30;;
25073;SDS011;13066;52.042;5.648;2023-04-24T01:38:58;1.58;;;1.48;;
25073;SDS011;13066;52.042;5.648;2023-04-24T01:41:28;9.90;;;1.30;;
25073;SDS011;13066;52.042;5.648;2023-04-24T01:43:56;1.55;;;1.30;;
25073;SDS011;13066;52.042;5.648;2023-04-24T01:46:25;3.28;;;1.40;;
25073;SDS011;13066;52.042;5.648;2023-04-24T01:48:53;2.65;;;1.52;;
25073;SDS011;13066;52.042;5.648;2023-04-24T01:51:21;2.35;;;1.67;;
25073;SDS011;13066;52.042;5.648;2023-04-24T01:53:49;2.22;;;1.98;;
25073;SDS011;13066;52.042;5.648;2023-04-24T01:56:17;2.75;;;1.48;;
25073;SDS011;13066;52.042;5.648;2023-04-24T01:58:46;2.53;;;1.70;;
25073;SDS011;13066;52.042;5.648;2023-04-24T02:01:14;2.40;;;2.03;;
25073;SDS011;13066;52.042;5.648;2023-04-24T02:03:43;3.30;;;1.60;;
25073;SDS011;13066;52.042;5.648;2023-04-24T02:06:11;1.80;;;1.70;;
25073;SDS011;13066;52.042;5.648;2023-04-24T02:08:39;4.72;;;2.35;;
25073;SDS011;13066;52.042;5.648;2023-04-24T02:11:08;5.25;;;2.20;;
25073;SDS011;13066;52.042;5.648;2023-04-24T02:13:36;3.40;;;2.78;;
25073;SDS011;13066;52.042;5.648;2023-04-24T02:16:05;5.22;;;2.60;;
25073;SDS011;13066;52.042;5.648;2023-04-24T02:18:33;3.78;;;2.80;;
25073;SDS011;13066;52.042;5.648;2023-04-24T02:21:01;4.45;;;3.00;;
25073;SDS011;13066;52.042;5.648;2023-04-24T02:23:29;4.60;;;3.20;;
25073;SDS011;13066;52.042;5.648;2023-04-24T02:25:57;6.03;;;3.47;;
25073;SDS011;13066;52.042;5.648;2023-04-24T02:28:25;4.93;;;3.20;;
25073;SDS011;13066;52.042;5.648;2023-04-24T02:30:53;4.32;;;3.70;;
25073;SDS011;13066;52.042;5.648;2023-04-24T02:33:22;7.32;;;4.10;;
25073;SDS011;13066;52.042;5.648;2023-04-24T02:35:50;4.72;;;4.22;;
25073;SDS011;13066;52.042;5.648;2023-04-24T02:38:18;5.75;;;4.50;;
25073;SDS011;13066;52.042;5.648;2023-04-24T02:40:46;6.07;;;4.53;;
25073;SDS011;13066;52.042;5.648;2023-04-24T02:43:14;6.55;;;5.15;;
25073;SDS011;13066;52.042;5.648;2023-04-24T02:45:42;8.98;;;4.75;;
25073;SDS011;13066;52.042;5.648;2023-04-24T02:48:10;7.32;;;5.30;;
25073;SDS011;13066;52.042;5.648;2023-04-24T02:50:39;5.85;;;4.90;;
25073;SDS011;13066;52.042;5.648;2023-04-24T02:53:07;7.57;;;5.68;;
25073;SDS011;13066;52.042;5.648;2023-04-24T02:55:35;7.18;;;6.05;;
25073;SDS011;13066;52.042;5.648;2023-04-24T02:58:03;7.95;;;6.75;;
25073;SDS011;13066;52.042;5.648;2023-04-24T03:00:32;11.50;;;7.43;;
25073;SDS011;13066;52.042;5.648;2023-04-24T03:03:01;11.90;;;8.93;;
25073;SDS011;13066;52.042;5.648;2023-04-24T03:05:29;9.52;;;8.27;;
25073;SDS011;13066;52.042;5.648;2023-04-24T03:07:59;12.23;;;8.18;;
25073;SDS011;13066;52.042;5.648;2023-04-24T03:10:27;10.48;;;7.97;;
25073;SDS011;13066;52.042;5.648;2023-04-24T03:12:55;10.45;;;7.75;;
25073;SDS011;13066;52.042;5.648;2023-04-24T03:15:23;11.77;;;8.25;;
25073;SDS011;13066;52.042;5.648;2023-04-24T03:17:51;9.73;;;7.72;;
25073;SDS011;13066;52.042;5.648;2023-04-24T03:20:22;10.23;;;7.00;;
25073;SDS011;13066;52.042;5.648;2023-04-24T03:22:51;8.88;;;6.60;;
25073;SDS011;13066;52.042;5.648;2023-04-24T03:25:20;8.98;;;6.47;;
25073;SDS011;13066;52.042;5.648;2023-04-24T03:27:49;8.85;;;6.68;;
25073;SDS011;13066;52.042;5.648;2023-04-24T03:30:32;8.82;;;6.88;;
25073;SDS011;13066;52.042;5.648;2023-04-24T03:33:01;8.43;;;7.30;;
25073;SDS011;13066;52.042;5.648;2023-04-24T03:35:33;9.70;;;7.43;;
25073;SDS011;13066;52.042;5.648;2023-04-24T03:38:07;11.90;;;8.07;;
25073;SDS011;13066;52.042;5.648;2023-04-24T03:40:42;11.18;;;8.55;;
25073;SDS011;13066;52.042;5.648;2023-04-24T03:43:23;12.05;;;8.90;;
25073;SDS011;13066;52.042;5.648;2023-04-24T03:45:51;12.90;;;9.20;;
25073;SDS011;13066;52.042;5.648;2023-04-24T03:48:19;14.52;;;10.82;;
25073;SDS011;13066;52.042;5.648;2023-04-24T03:50:47;16.55;;;12.48;;
25073;SDS011;13066;52.042;5.648;2023-04-24T03:53:15;18.73;;;13.32;;
25073;SDS011;13066;52.042;5.648;2023-04-24T03:55:45;18.70;;;14.48;;
25073;SDS011;13066;52.042;5.648;2023-04-24T03:58:13;18.25;;;14.20;;
25073;SDS011;13066;52.042;5.648;2023-04-24T04:00:42;20.88;;;15.48;;
25073;SDS011;13066;52.042;5.648;2023-04-24T04:03:29;25.67;;;15.52;;
25073;SDS011;13066;52.042;5.648;2023-04-24T04:05:58;19.27;;;15.23;;
25073;SDS011;13066;52.042;5.648;2023-04-24T04:08:26;24.42;;;17.20;;
25073;SDS011;13066;52.042;5.648;2023-04-24T04:10:55;23.90;;;16.67;;
25073;SDS011;13066;52.042;5.648;2023-04-24T04:13:23;23.17;;;17.38;;
25073;SDS011;13066;52.042;5.648;2023-04-24T04:15:51;22.75;;;17.42;;
25073;SDS011;13066;52.042;5.648;2023-04-24T04:18:19;21.55;;;17.42;;
25073;SDS011;13066;52.042;5.648;2023-04-24T04:20:47;24.58;;;17.83;;
25073;SDS011;13066;52.042;5.648;2023-04-24T04:23:16;28.65;;;18.95;;
25073;SDS011;13066;52.042;5.648;2023-04-24T04:26:12;32.00;;;18.02;;
25073;SDS011;13066;52.042;5.648;2023-04-24T04:29:00;30.42;;;19.48;;
25073;SDS011;13066;52.042;5.648;2023-04-24T04:31:31;23.98;;;16.60;;
25073;SDS011;13066;52.042;5.648;2023-04-24T04:34:02;23.77;;;15.98;;
25073;SDS011;13066;52.042;5.648;2023-04-24T04:36:31;16.98;;;14.10;;
25073;SDS011;13066;52.042;5.648;2023-04-24T04:39:26;18.38;;;13.05;;
25073;SDS011;13066;52.042;5.648;2023-04-24T04:42:03;10.02;;;7.05;;
25073;SDS011;13066;52.042;5.648;2023-04-24T04:44:37;6.72;;;5.72;;
25073;SDS011;13066;52.042;5.648;2023-04-24T04:47:09;5.60;;;5.00;;
25073;SDS011;13066;52.042;5.648;2023-04-24T04:49:37;6.78;;;4.72;;
25073;SDS011;13066;52.042;5.648;2023-04-24T04:52:10;5.93;;;3.70;;
25073;SDS011;13066;52.042;5.648;2023-04-24T04:54:38;5.10;;;3.60;;
25073;SDS011;13066;52.042;5.648;2023-04-24T04:57:07;6.68;;;3.90;;
25073;SDS011;13066;52.042;5.648;2023-04-24T04:59:36;5.50;;;4.30;;
25073;SDS011;13066;52.042;5.648;2023-04-24T05:02:10;4.70;;;3.33;;
25073;SDS011;13066;52.042;5.648;2023-04-24T05:04:38;6.53;;;4.05;;
25073;SDS011;13066;52.042;5.648;2023-04-24T05:07:06;6.53;;;4.55;;
25073;SDS011;13066;52.042;5.648;2023-04-24T05:09:38;6.32;;;4.97;;
25073;SDS011;13066;52.042;5.648;2023-04-24T05:12:07;6.03;;;5.13;;
25073;SDS011;13066;52.042;5.648;2023-04-24T05:14:43;7.93;;;5.63;;
25073;SDS011;13066;52.042;5.648;2023-04-24T05:17:11;9.38;;;6.07;;
25073;SDS011;13066;52.042;5.648;2023-04-24T05:19:39;7.90;;;5.80;;
25073;SDS011;13066;52.042;5.648;2023-04-24T05:22:08;9.30;;;4.93;;
25073;SDS011;13066;52.042;5.648;2023-04-24T05:24:45;6.85;;;5.32;;
25073;SDS011;13066;52.042;5.648;2023-04-24T05:27:33;4.88;;;4.38;;
25073;SDS011;13066;52.042;5.648;2023-04-24T05:30:07;5.90;;;4.63;;
25073;SDS011;13066;52.042;5.648;2023-04-24T05:32:36;4.80;;;3.65;;
25073;SDS011;13066;52.042;5.648;2023-04-24T05:35:04;5.88;;;4.05;;
25073;SDS011;13066;52.042;5.648;2023-04-24T05:37:33;5.45;;;3.13;;
25073;SDS011;13066;52.042;5.648;2023-04-24T05:40:01;4.30;;;3.05;;
25073;SDS011;13066;52.042;5.648;2023-04-24T05:42:31;3.83;;;3.25;;
25073;SDS011;13066;52.042;5.648;2023-04-24T05:45:00;6.70;;;3.20;;
25073;SDS011;13066;52.042;5.648;2023-04-24T05:47:28;3.75;;;3.30;;
25073;SDS011;13066;52.042;5.648;2023-04-24T05:49:57;3.80;;;3.40;;
25073;SDS011;13066;52.042;5.648;2023-04-24T05:52:25;5.20;;;3.33;;
25073;SDS011;13066;52.042;5.648;2023-04-24T05:54:53;4.00;;;3.45;;
25073;SDS011;13066;52.042;5.648;2023-04-24T05:57:25;4.93;;;3.28;;
25073;SDS011;13066;52.042;5.648;2023-04-24T05:59:58;4.85;;;3.50;;
25073;SDS011;13066;52.042;5.648;2023-04-24T06:02:29;4.57;;;3.60;;
25073;SDS011;13066;52.042;5.648;2023-04-24T06:04:59;4.05;;;3.15;;
25073;SDS011;13066;52.042;5.648;2023-04-24T06:07:27;4.75;;;3.40;;
25073;SDS011;13066;52.042;5.648;2023-04-24T06:09:55;4.93;;;3.55;;
25073;SDS011;13066;52.042;5.648;2023-04-24T06:12:24;5.30;;;3.38;;
25073;SDS011;13066;52.042;5.648;2023-04-24T06:14:58;5.55;;;3.58;;
25073;SDS011;13066;52.042;5.648;2023-04-24T06:17:51;4.65;;;3.25;;
25073;SDS011;13066;52.042;5.648;2023-04-24T06:20:20;5.30;;;3.42;;
25073;SDS011;13066;52.042;5.648;2023-04-24T06:22:48;5.45;;;3.60;;
25073;SDS011;13066;52.042;5.648;2023-04-24T06:25:16;5.22;;;3.55;;
25073;SDS011;13066;52.042;5.648;2023-04-24T06:27:44;4.70;;;3.17;;
25073;SDS011;13066;52.042;5.648;2023-04-24T06:30:12;4.65;;;3.67;;
25073;SDS011;13066;52.042;5.648;2023-04-24T06:32:40;5.60;;;3.88;;
25073;SDS011;13066;52.042;5.648;2023-04-24T06:35:10;5.00;;;3.60;;
25073;SDS011;13066;52.042;5.648;2023-04-24T06:37:39;4.22;;;3.42;;
25073;SDS011;13066;52.042;5.648;2023-04-24T06:40:07;4.25;;;3.47;;
25073;SDS011;13066;52.042;5.648;2023-04-24T06:42:36;4.85;;;3.67;;
25073;SDS011;13066;52.042;5.648;2023-04-24T06:45:07;5.10;;;4.03;;
25073;SDS011;13066;52.042;5.648;2023-04-24T06:47:35;6.30;;;4.00;;
25073;SDS011;13066;52.042;5.648;2023-04-24T06:50:04;4.68;;;4.20;;
25073;SDS011;13066;52.042;5.648;2023-04-24T06:52:34;9.02;;;4.78;;
25073;SDS011;13066;52.042;5.648;2023-04-24T06:55:03;7.43;;;4.57;;
25073;SDS011;13066;52.042;5.648;2023-04-24T06:57:31;7.05;;;5.60;;
25073;SDS011;13066;52.042;5.648;2023-04-24T06:59:59;6.93;;;5.32;;
25073;SDS011;13066;52.042;5.648;2023-04-24T07:02:28;6.47;;;4.82;;
25073;SDS011;13066;52.042;5.648;2023-04-24T07:04:56;5.65;;;3.70;;
25073;SDS011;13066;52.042;5.648;2023-04-24T07:07:24;5.03;;;3.17;;
25073;SDS011;13066;52.042;5.648;2023-04-24T07:09:53;4.45;;;2.97;;
25073;SDS011;13066;52.042;5.648;2023-04-24T07:12:22;8.40;;;2.80;;
25073;SDS011;13066;52.042;5.648;2023-04-24T07:14:50;4.88;;;3.83;;
25073;SDS011;13066;52.042;5.648;2023-04-24T07:17:18;5.53;;;4.43;;
25073;SDS011;13066;52.042;5.648;2023-04-24T07:19:46;6.80;;;4.90;;
25073;SDS011;13066;52.042;5.648;2023-04-24T07:22:14;10.38;;;5.90;;
25073;SDS011;13066;52.042;5.648;2023-04-24T07:24:43;9.18;;;6.28;;
25073;SDS011;13066;52.042;5.648;2023-04-24T07:27:12;14.60;;;7.72;;
25073;SDS011;13066;52.042;5.648;2023-04-24T07:29:41;13.77;;;8.40;;
25073;SDS011;13066;52.042;5.648;2023-04-24T07:32:10;15.02;;;9.07;;
25073;SDS011;13066;52.042;5.648;2023-04-24T07:34:38;16.98;;;8.18;;
25073;SDS011;13066;52.042;5.648;2023-04-24T07:37:06;15.30;;;8.65;;
25073;SDS011;13066;52.042;5.648;2023-04-24T07:39:34;13.23;;;9.52;;
25073;SDS011;13066;52.042;5.648;2023-04-24T07:42:02;17.98;;;9.07;;
25073;SDS011;13066;52.042;5.648;2023-04-24T07:44:32;19.08;;;9.68;;
25073;SDS011;13066;52.042;5.648;2023-04-24T07:47:00;21.58;;;10.10;;
25073;SDS011;13066;52.042;5.648;2023-04-24T07:49:27;19.52;;;9.65;;
25073;SDS011;13066;52.042;5.648;2023-04-24T07:51:56;16.33;;;10.32;;
25073;SDS011;13066;52.042;5.648;2023-04-24T07:54:24;16.65;;;9.10;;
25073;SDS011;13066;52.042;5.648;2023-04-24T07:56:51;16.13;;;9.07;;
25073;SDS011;13066;52.042;5.648;2023-04-24T07:59:20;20.50;;;9.40;;
25073;SDS011;13066;52.042;5.648;2023-04-24T08:01:49;18.60;;;8.93;;
25073;SDS011;13066;52.042;5.648;2023-04-24T08:04:17;17.63;;;9.27;;
25073;SDS011;13066;52.042;5.648;2023-04-24T08:06:46;23.42;;;9.63;;
25073;SDS011;13066;52.042;5.648;2023-04-24T08:09:15;16.35;;;9.48;;
25073;SDS011;13066;52.042;5.648;2023-04-24T08:11:43;18.52;;;9.35;;
25073;SDS011;13066;52.042;5.648;2023-04-24T08:14:10;20.48;;;9.88;;
25073;SDS011;13066;52.042;5.648;2023-04-24T08:16:39;17.58;;;8.85;;
25073;SDS011;13066;52.042;5.648;2023-04-24T08:19:09;20.92;;;10.02;;
25073;SDS011;13066;52.042;5.648;2023-04-24T08:21:37;19.73;;;9.73;;
25073;SDS011;13066;52.042;5.648;2023-04-24T08:24:05;19.42;;;10.07;;
25073;SDS011;13066;52.042;5.648;2023-04-24T08:26:34;20.77;;;10.15;;
25073;SDS011;13066;52.042;5.648;2023-04-24T08:29:02;15.77;;;9.05;;
25073;SDS011;13066;52.042;5.648;2023-04-24T08:31:30;16.23;;;9.95;;
25073;SDS011;13066;52.042;5.648;2023-04-24T08:33:58;22.67;;;10.23;;
25073;SDS011;13066;52.042;5.648;2023-04-24T08:36:28;18.35;;;10.20;;
25073;SDS011;13066;52.042;5.648;2023-04-24T08:39:12;21.63;;;10.15;;
25073;SDS011;13066;52.042;5.648;2023-04-24T08:41:41;19.55;;;10.32;;
25073;SDS011;13066;52.042;5.648;2023-04-24T08:44:09;16.75;;;9.10;;
25073;SDS011;13066;52.042;5.648;2023-04-24T08:46:37;16.15;;;5.75;;
25073;SDS011;13066;52.042;5.648;2023-04-24T08:49:06;12.25;;;4.47;;
25073;SDS011;13066;52.042;5.648;2023-04-24T08:51:35;12.38;;;4.18;;
25073;SDS011;13066;52.042;5.648;2023-04-24T08:54:04;13.48;;;4.97;;
25073;SDS011;13066;52.042;5.648;2023-04-24T08:56:34;14.40;;;4.85;;
25073;SDS011;13066;52.042;5.648;2023-04-24T08:59:05;22.55;;;5.13;;
25073;SDS011;13066;52.042;5.648;2023-04-24T09:01:33;14.52;;;4.22;;
25073;SDS011;13066;52.042;5.648;2023-04-24T09:04:03;18.67;;;4.18;;
25073;SDS011;13066;52.042;5.648;2023-04-24T09:06:31;14.27;;;4.35;;
25073;SDS011;13066;52.042;5.648;2023-04-24T09:09:01;12.43;;;4.57;;
25073;SDS011;13066;52.042;5.648;2023-04-24T09:11:30;18.80;;;4.65;;
25073;SDS011;13066;52.042;5.648;2023-04-24T09:13:58;18.35;;;4.50;;
25073;SDS011;13066;52.042;5.648;2023-04-24T09:16:26;17.42;;;4.05;;
25073;SDS011;13066;52.042;5.648;2023-04-24T09:18:54;14.63;;;4.10;;
25073;SDS011;13066;52.042;5.648;2023-04-24T09:21:23;21.08;;;4.45;;
25073;SDS011;13066;52.042;5.648;2023-04-24T09:23:57;17.33;;;3.58;;
25073;SDS011;13066;52.042;5.648;2023-04-24T09:26:27;20.45;;;4.20;;
25073;SDS011;13066;52.042;5.648;2023-04-24T09:28:58;19.25;;;3.63;;
25073;SDS011;13066;52.042;5.648;2023-04-24T09:31:26;12.40;;;3.05;;
25073;SDS011;13066;52.042;5.648;2023-04-24T09:33:57;12.88;;;3.60;;
25073;SDS011;13066;52.042;5.648;2023-04-24T09:36:28;16.38;;;3.35;;
25073;SDS011;13066;52.042;5.648;2023-04-24T09:38:59;18.20;;;3.75;;
25073;SDS011;13066;52.042;5.648;2023-04-24T09:41:29;17.52;;;3.83;;
25073;SDS011;13066;52.042;5.648;2023-04-24T09:43:57;21.00;;;3.80;;
25073;SDS011;13066;52.042;5.648;2023-04-24T09:46:29;14.38;;;3.70;;
25073;SDS011;13066;52.042;5.648;2023-04-24T09:49:02;14.00;;;3.75;;
25073;SDS011;13066;52.042;5.648;2023-04-24T09:51:36;17.58;;;3.58;;
25073;SDS011;13066;52.042;5.648;2023-04-24T09:54:11;20.55;;;5.05;;
25073;SDS011;13066;52.042;5.648;2023-04-24T09:56:44;13.98;;;3.40;;
25073;SDS011;13066;52.042;5.648;2023-04-24T09:59:12;15.80;;;3.45;;
25073;SDS011;13066;52.042;5.648;2023-04-24T10:01:41;13.00;;;3.55;;
25073;SDS011;13066;52.042;5.648;2023-04-24T10:04:20;12.60;;;3.97;;
25073;SDS011;13066;52.042;5.648;2023-04-24T10:06:50;12.75;;;3.80;;
25073;SDS011;13066;52.042;5.648;2023-04-24T10:09:20;16.55;;;3.72;;
25073;SDS011;13066;52.042;5.648;2023-04-24T10:11:51;19.02;;;4.03;;
25073;SDS011;13066;52.042;5.648;2023-04-24T10:14:20;18.08;;;3.25;;
25073;SDS011;13066;52.042;5.648;2023-04-24T10:16:49;12.68;;;3.17;;
25073;SDS011;13066;52.042;5.648;2023-04-24T10:19:18;14.55;;;3.50;;
25073;SDS011;13066;52.042;5.648;2023-04-24T10:21:46;18.08;;;4.35;;
25073;SDS011;13066;52.042;5.648;2023-04-24T10:24:15;13.68;;;3.10;;
25073;SDS011;13066;52.042;5.648;2023-04-24T10:26:44;13.02;;;3.13;;
25073;SDS011;13066;52.042;5.648;2023-04-24T10:29:16;13.05;;;2.90;;
25073;SDS011;13066;52.042;5.648;2023-04-24T10:31:45;12.38;;;3.50;;
25073;SDS011;13066;52.042;5.648;2023-04-24T10:34:14;12.43;;;2.88;;
25073;SDS011;13066;52.042;5.648;2023-04-24T10:36:45;18.52;;;3.30;;
25073;SDS011;13066;52.042;5.648;2023-04-24T10:39:14;10.13;;;2.95;;
25073;SDS011;13066;52.042;5.648;2023-04-24T10:41:44;15.60;;;3.40;;
25073;SDS011;13066;52.042;5.648;2023-04-24T10:44:13;6.43;;;2.58;;
25073;SDS011;13066;52.042;5.648;2023-04-24T10:46:44;11.32;;;2.63;;
25073;SDS011;13066;52.042;5.648;2023-04-24T10:49:14;10.38;;;2.55;;
25073;SDS011;13066;52.042;5.648;2023-04-24T10:51:45;13.90;;;2.90;;
25073;SDS011;13066;52.042;5.648;2023-04-24T11:00:19;13.30;;;2.35;;
25073;SDS011;13066;52.042;5.648;2023-04-24T11:02:49;11.63;;;2.28;;
25073;SDS011;13066;52.042;5.648;2023-04-24T11:05:21;9.70;;;1.90;;
25073;SDS011;13066;52.042;5.648;2023-04-24T11:10:40;5.90;;;1.60;;
25073;SDS011;13066;52.042;5.648;2023-04-24T11:13:08;6.60;;;1.30;;
25073;SDS011;13066;52.042;5.648;2023-04-24T11:15:38;7.82;;;1.58;;
25073;SDS011;13066;52.042;5.648;2023-04-24T11:18:15;5.03;;;1.40;;
25073;SDS011;13066;52.042;5.648;2023-04-24T11:20:45;4.82;;;1.70;;
25073;SDS011;13066;52.042;5.648;2023-04-24T11:23:15;4.75;;;1.60;;
25073;SDS011;13066;52.042;5.648;2023-04-24T11:25:52;5.28;;;1.58;;
25073;SDS011;13066;52.042;5.648;2023-04-24T11:28:43;4.60;;;1.67;;
25073;SDS011;13066;52.042;5.648;2023-04-24T11:34:08;4.63;;;0.98;;
25073;SDS011;13066;52.042;5.648;2023-04-24T11:36:37;9.00;;;1.50;;
25073;SDS011;13066;52.042;5.648;2023-04-24T11:39:06;7.20;;;2.00;;
25073;SDS011;13066;52.042;5.648;2023-04-24T11:41:34;4.90;;;1.48;;
25073;SDS011;13066;52.042;5.648;2023-04-24T11:44:02;10.50;;;1.52;;
25073;SDS011;13066;52.042;5.648;2023-04-24T11:46:31;5.65;;;1.35;;
25073;SDS011;13066;52.042;5.648;2023-04-24T11:48:59;7.93;;;1.30;;
25073;SDS011;13066;52.042;5.648;2023-04-24T11:51:29;2.28;;;1.00;;
25073;SDS011;13066;52.042;5.648;2023-04-24T11:54:16;2.60;;;1.02;;
25073;SDS011;13066;52.042;5.648;2023-04-24T11:56:44;5.13;;;1.55;;
25073;SDS011;13066;52.042;5.648;2023-04-24T11:59:14;7.95;;;1.30;;
25073;SDS011;13066;52.042;5.648;2023-04-24T12:01:42;7.57;;;1.58;;
25073;SDS011;13066;52.042;5.648;2023-04-24T12:04:12;8.32;;;1.50;;
25073;SDS011;13066;52.042;5.648;2023-04-24T12:06:50;2.45;;;1.50;;
25073;SDS011;13066;52.042;5.648;2023-04-24T12:09:26;4.90;;;1.35;;
25073;SDS011;13066;52.042;5.648;2023-04-24T12:11:54;5.85;;;1.58;;
25073;SDS011;13066;52.042;5.648;2023-04-24T12:14:23;5.72;;;1.48;;
25073;SDS011;13066;52.042;5.648;2023-04-24T12:16:51;6.22;;;1.42;;
25073;SDS011;13066;52.042;5.648;2023-04-24T12:19:20;6.78;;;1.40;;
25073;SDS011;13066;52.042;5.648;2023-04-24T12:22:00;9.65;;;1.38;;
25073;SDS011;13066;52.042;5.648;2023-04-24T12:24:28;4.40;;;1.38;;
25073;SDS011;13066;52.042;5.648;2023-04-24T12:26:57;6.82;;;1.23;;
25073;SDS011;13066;52.042;5.648;2023-04-24T12:29:25;5.40;;;1.45;;
25073;SDS011;13066;52.042;5.648;2023-04-24T12:31:53;4.90;;;1.27;;
25073;SDS011;13066;52.042;5.648;2023-04-24T12:34:23;11.98;;;1.17;;
25073;SDS011;13066;52.042;5.648;2023-04-24T12:36:53;20.92;;;1.92;;
25073;SDS011;13066;52.042;5.648;2023-04-24T12:39:22;9.85;;;1.50;;
25073;SDS011;13066;52.042;5.648;2023-04-24T12:41:56;5.75;;;1.10;;
25073;SDS011;13066;52.042;5.648;2023-04-24T12:44:29;5.90;;;1.73;;
25073;SDS011;13066;52.042;5.648;2023-04-24T12:46:58;5.00;;;1.55;;
25073;SDS011;13066;52.042;5.648;2023-04-24T12:49:26;7.32;;;1.50;;
25073;SDS011;13066;52.042;5.648;2023-04-24T12:51:54;8.80;;;1.52;;
25073;SDS011;13066;52.042;5.648;2023-04-24T12:54:23;9.07;;;1.60;;
25073;SDS011;13066;52.042;5.648;2023-04-24T12:56:51;7.78;;;1.70;;
25073;SDS011;13066;52.042;5.648;2023-04-24T12:59:19;10.40;;;1.85;;
25073;SDS011;13066;52.042;5.648;2023-04-24T13:01:47;8.75;;;1.80;;
25073;SDS011;13066;52.042;5.648;2023-04-24T13:04:15;9.00;;;1.90;;
25073;SDS011;13066;52.042;5.648;2023-04-24T13:06:43;7.57;;;1.70;;
25073;SDS011;13066;52.042;5.648;2023-04-24T13:09:11;9.52;;;1.63;;
25073;SDS011;13066;52.042;5.648;2023-04-24T13:11:41;9.90;;;1.70;;
25073;SDS011;13066;52.042;5.648;2023-04-24T13:14:08;12.70;;;2.20;;
25073;SDS011;13066;52.042;5.648;2023-04-24T13:16:36;13.48;;;1.88;;
25073;SDS011;13066;52.042;5.648;2023-04-24T13:19:05;9.73;;;2.10;;
25073;SDS011;13066;52.042;5.648;2023-04-24T13:21:33;9.20;;;2.13;;
25073;SDS011;13066;52.042;5.648;2023-04-24T13:24:01;14.25;;;2.00;;
25073;SDS011;13066;52.042;5.648;2023-04-24T13:26:31;6.25;;;1.90;;
25073;SDS011;13066;52.042;5.648;2023-04-24T13:29:00;9.75;;;2.22;;
25073;SDS011;13066;52.042;5.648;2023-04-24T13:31:28;8.65;;;2.40;;
25073;SDS011;13066;52.042;5.648;2023-04-24T13:33:57;8.88;;;2.80;;
25073;SDS011;13066;52.042;5.648;2023-04-24T13:36:25;10.15;;;2.00;;
25073;SDS011;13066;52.042;5.648;2023-04-24T13:38:53;12.73;;;2.83;;
25073;SDS011;13066;52.042;5.648;2023-04-24T13:41:21;12.43;;;2.60;;
25073;SDS011;13066;52.042;5.648;2023-04-24T13:43:49;12.13;;;2.63;;
25073;SDS011;13066;52.042;5.648;2023-04-24T13:46:18;13.68;;;2.80;;
25073;SDS011;13066;52.042;5.648;2023-04-24T13:48:46;9.85;;;2.75;;
25073;SDS011;13066;52.042;5.648;2023-04-24T13:51:14;10.90;;;2.33;;
25073;SDS011;13066;52.042;5.648;2023-04-24T13:53:43;19.27;;;3.03;;
25073;SDS011;13066;52.042;5.648;2023-04-24T13:56:11;14.82;;;3.03;;
25073;SDS011;13066;52.042;5.648;2023-04-24T13:58:40;15.30;;;2.83;;
25073;SDS011;13066;52.042;5.648;2023-04-24T14:01:08;15.93;;;3.08;;
25073;SDS011;13066;52.042;5.648;2023-04-24T14:03:38;14.57;;;2.95;;
25073;SDS011;13066;52.042;5.648;2023-04-24T14:06:06;22.90;;;3.15;;
25073;SDS011;13066;52.042;5.648;2023-04-24T14:08:34;12.70;;;3.20;;
25073;SDS011;13066;52.042;5.648;2023-04-24T14:11:02;14.88;;;3.03;;
25073;SDS011;13066;52.042;5.648;2023-04-24T14:13:30;10.77;;;2.90;;
25073;SDS011;13066;52.042;5.648;2023-04-24T14:15:59;13.68;;;3.10;;
25073;SDS011;13066;52.042;5.648;2023-04-24T14:18:27;11.50;;;2.95;;
25073;SDS011;13066;52.042;5.648;2023-04-24T14:20:56;12.98;;;3.00;;
25073;SDS011;13066;52.042;5.648;2023-04-24T14:23:24;12.95;;;2.63;;
25073;SDS011;13066;52.042;5.648;2023-04-24T14:25:52;16.00;;;2.97;;
25073;SDS011;13066;52.042;5.648;2023-04-24T14:28:20;10.15;;;2.72;;
25073;SDS011;13066;52.042;5.648;2023-04-24T14:30:49;6.90;;;2.40;;
25073;SDS011;13066;52.042;5.648;2023-04-24T14:33:16;13.60;;;3.13;;
25073;SDS011;13066;52.042;5.648;2023-04-24T14:35:46;11.80;;;2.75;;
25073;SDS011;13066;52.042;5.648;2023-04-24T14:38:17;10.18;;;3.20;;
25073;SDS011;13066;52.042;5.648;2023-04-24T14:40:57;15.50;;;3.70;;
25073;SDS011;13066;52.042;5.648;2023-04-24T14:43:41;17.17;;;6.25;;
25073;SDS011;13066;52.042;5.648;2023-04-24T14:46:17;62.28;;;19.20;;
25073;SDS011;13066;52.042;5.648;2023-04-24T14:48:52;81.97;;;27.25;;
25073;SDS011;13066;52.042;5.648;2023-04-24T14:51:25;32.03;;;8.63;;
25073;SDS011;13066;52.042;5.648;2023-04-24T14:54:19;29.02;;;7.50;;
25073;SDS011;13066;52.042;5.648;2023-04-24T14:56:55;17.83;;;4.18;;
25073;SDS011;13066;52.042;5.648;2023-04-24T14:59:25;13.95;;;3.22;;
25073;SDS011;13066;52.042;5.648;2023-04-24T15:02:00;15.73;;;3.72;;
25073;SDS011;13066;52.042;5.648;2023-04-24T15:04:41;15.30;;;3.72;;
25073;SDS011;13066;52.042;5.648;2023-04-24T15:07:09;11.57;;;3.30;;
25073;SDS011;13066;52.042;5.648;2023-04-24T15:09:39;12.82;;;3.03;;